createdAt,value
2018-10-21T00:01:33.558Z,11.73
2018-10-21T00:04:02.432Z,11.17
2018-10-21T00:06:31.344Z,11.23
2018-10-21T00:09:00.590Z,11.60
2018-10-21T00:11:29.543Z,11.60
2018-10-21T00:13:58.444Z,11.60
2018-10-21T00:16:43.832Z,12.00
2018-10-21T00:19:12.711Z,12.13
2018-10-21T00:21:41.660Z,12.90
2018-10-21T00:24:16.628Z,12.00
2018-10-21T00:26:45.539Z,11.70
2018-10-21T00:29:14.418Z,12.53
2018-10-21T00:31:43.353Z,12.67
2018-10-21T00:34:14.302Z,12.03
2018-10-21T00:36:43.211Z,12.53
2018-10-21T00:39:13.560Z,11.93
2018-10-21T00:41:50.808Z,12.20
2018-10-21T00:44:19.711Z,12.73
2018-10-21T00:46:48.586Z,11.50
2018-10-21T00:49:18.566Z,12.80
2018-10-21T00:51:49.526Z,12.47
2018-10-21T00:54:18.431Z,11.73
2018-10-21T00:56:47.873Z,11.97
2018-10-21T00:59:22.455Z,12.43
2018-10-21T01:01:52.754Z,12.33
2018-10-21T01:04:22.670Z,12.80
2018-10-21T01:06:51.573Z,13.07
2018-10-21T01:09:26.702Z,12.50
2018-10-21T01:12:03.473Z,12.30
2018-10-21T01:17:26.635Z,13.10
2018-10-21T01:19:56.630Z,12.83
2018-10-21T01:22:40.477Z,12.90
2018-10-21T01:25:14.954Z,13.30
2018-10-21T01:27:43.823Z,11.90
2018-10-21T01:30:13.302Z,12.97
2018-10-21T01:32:48.136Z,13.33
2018-10-21T01:35:17.104Z,13.30
2018-10-21T01:37:46.074Z,13.73
2018-10-21T01:40:35.742Z,14.20
2018-10-21T01:43:07.578Z,13.33
2018-10-21T01:45:36.514Z,13.47
2018-10-21T01:48:06.882Z,13.47
2018-10-21T01:50:35.860Z,14.67
2018-10-21T01:53:05.888Z,14.43
2018-10-21T01:55:34.748Z,14.33
2018-10-21T01:58:15.753Z,13.57
2018-10-21T02:00:44.845Z,14.27
2018-10-21T02:03:13.898Z,14.47
2018-10-21T02:05:54.896Z,14.20
2018-10-21T02:08:23.815Z,14.27
2018-10-21T02:11:06.805Z,14.60
2018-10-21T02:13:35.698Z,13.77
2018-10-21T02:16:04.608Z,13.87
2018-10-21T02:18:35.577Z,13.67
2018-10-21T02:21:04.520Z,13.80
2018-10-21T02:23:35.369Z,12.73
2018-10-21T02:26:04.270Z,13.97
2018-10-21T02:28:33.171Z,13.63
2018-10-21T02:31:20.861Z,13.67
2018-10-21T02:33:49.770Z,12.87
2018-10-21T02:36:29.665Z,13.37
2018-10-21T02:39:07.930Z,13.60
2018-10-21T02:41:48.322Z,13.67
2018-10-21T02:44:20.791Z,13.57
2018-10-21T02:46:51.268Z,13.40
2018-10-21T02:49:20.726Z,14.10
2018-10-21T02:51:55.005Z,14.83
2018-10-21T02:54:28.985Z,14.30
2018-10-21T02:56:57.865Z,14.77
2018-10-21T02:59:26.920Z,13.90
2018-10-21T03:01:55.824Z,14.43
2018-10-21T03:04:25.852Z,13.97
2018-10-21T03:06:54.762Z,14.90
2018-10-21T03:09:23.627Z,14.80
2018-10-21T03:11:52.520Z,14.27
2018-10-21T03:14:28.522Z,15.40
2018-10-21T03:17:01.321Z,15.07
2018-10-21T03:19:31.037Z,14.33
2018-10-21T03:22:07.417Z,13.47
2018-10-21T03:24:40.113Z,15.90
2018-10-21T03:27:09.491Z,14.07
2018-10-21T03:29:40.688Z,14.50
2018-10-21T03:32:09.933Z,13.20
2018-10-21T03:34:46.638Z,14.37
2018-10-21T03:37:21.573Z,13.47
2018-10-21T03:39:50.921Z,13.33
2018-10-21T03:42:19.864Z,13.03
2018-10-21T03:44:48.729Z,15.67
2018-10-21T03:47:23.364Z,15.93
2018-10-21T03:49:52.257Z,14.33
2018-10-21T03:52:21.144Z,14.40
2018-10-21T03:54:50.234Z,14.20
2018-10-21T03:57:19.098Z,14.03
2018-10-21T03:59:47.977Z,14.13
2018-10-21T04:02:27.719Z,14.43
2018-10-21T04:04:56.606Z,13.93
2018-10-21T04:07:37.525Z,14.13
2018-10-21T04:10:06.448Z,14.03
2018-10-21T04:12:36.399Z,13.70
2018-10-21T04:15:07.676Z,13.97
2018-10-21T04:17:47.167Z,14.27
2018-10-21T04:20:16.187Z,14.50
2018-10-21T04:23:04.074Z,14.47
2018-10-21T04:25:36.589Z,13.37
2018-10-21T04:28:24.885Z,13.97
2018-10-21T04:31:11.901Z,13.23
2018-10-21T04:33:46.852Z,14.50
2018-10-21T04:36:20.407Z,14.33
2018-10-21T04:40:03.690Z,14.20
2018-10-21T04:42:42.136Z,14.13
2018-10-21T04:45:12.343Z,14.70
2018-10-21T04:47:41.355Z,13.63
2018-10-21T04:50:32.763Z,14.63
2018-10-21T04:53:06.133Z,14.17
2018-10-21T04:55:40.333Z,14.90
2018-10-21T04:58:09.832Z,13.93
2018-10-21T05:00:49.654Z,14.07
2018-10-21T05:03:19.059Z,13.17
2018-10-21T05:05:48.564Z,13.10
2018-10-21T05:08:19.010Z,13.60
2018-10-21T05:10:48.372Z,13.03
2018-10-21T05:13:18.026Z,13.87
2018-10-21T05:15:49.542Z,13.53
2018-10-21T05:18:24.599Z,13.00
2018-10-21T05:26:57.522Z,13.83
2018-10-21T05:29:27.592Z,13.60
2018-10-21T05:32:00.472Z,14.00
2018-10-21T05:34:30.383Z,14.20
2018-10-21T05:37:02.407Z,13.20
2018-10-21T05:39:40.930Z,13.37
2018-10-21T05:42:14.117Z,14.50
2018-10-21T05:44:56.007Z,14.07
2018-10-21T05:47:25.940Z,14.73
2018-10-21T05:49:54.823Z,13.77
2018-10-21T05:52:24.721Z,14.80
2018-10-21T05:54:57.550Z,14.27
2018-10-21T05:57:26.414Z,14.37
2018-10-21T05:59:55.299Z,14.37
2018-10-21T06:02:40.293Z,14.60
2018-10-21T06:05:21.480Z,13.20
2018-10-21T06:08:03.827Z,14.10
2018-10-21T06:10:36.730Z,14.00
2018-10-21T06:13:20.345Z,13.40
2018-10-21T06:16:02.108Z,14.50
2018-10-21T06:18:36.708Z,14.00
2018-10-21T06:21:06.223Z,14.17
2018-10-21T06:23:35.239Z,13.90
2018-10-21T06:26:04.115Z,14.00
2018-10-21T06:28:33.067Z,14.03
2018-10-21T06:31:01.940Z,13.40
2018-10-21T06:33:30.851Z,15.20
2018-10-21T06:36:00.879Z,14.20
2018-10-21T06:38:47.268Z,14.37
2018-10-21T06:41:16.218Z,14.80
2018-10-21T06:43:45.102Z,15.17
2018-10-21T06:46:14.001Z,14.53
2018-10-21T06:48:59.035Z,15.43
2018-10-21T06:51:27.917Z,15.47
2018-10-21T06:53:56.816Z,15.70
2018-10-21T06:56:25.927Z,14.57
2018-10-21T06:58:54.802Z,15.03
2018-10-21T07:01:23.685Z,15.63
2018-10-21T07:03:52.565Z,15.60
2018-10-21T07:09:17.293Z,15.87
2018-10-21T07:11:46.185Z,17.17
2018-10-21T07:14:15.088Z,16.93
2018-10-21T07:16:51.704Z,17.53
2018-10-21T07:19:21.736Z,16.80
2018-10-21T07:22:03.787Z,16.70
2018-10-21T07:24:32.697Z,16.70
2018-10-21T07:27:01.594Z,17.03
2018-10-21T07:29:30.489Z,17.70
2018-10-21T07:31:59.429Z,17.50
2018-10-21T07:34:28.460Z,17.43
2018-10-21T07:36:58.486Z,17.53
2018-10-21T07:39:28.502Z,17.73
2018-10-21T07:42:02.458Z,18.27
2018-10-21T07:44:37.812Z,17.13
2018-10-21T07:47:06.796Z,17.70
2018-10-21T07:52:35.620Z,17.90
2018-10-21T07:55:06.653Z,17.53
2018-10-21T07:57:47.127Z,17.53
2018-10-21T08:00:16.226Z,17.90
2018-10-21T08:02:47.216Z,17.63
2018-10-21T08:06:28.424Z,16.07
2018-10-21T08:08:57.348Z,17.47
2018-10-21T08:11:33.433Z,17.50
2018-10-21T08:14:02.420Z,18.40
2018-10-21T08:16:31.442Z,18.03
2018-10-21T08:19:00.338Z,17.20
2018-10-21T08:21:29.443Z,17.23
2018-10-21T08:23:58.391Z,17.57
2018-10-21T08:26:27.244Z,16.43
2018-10-21T08:28:56.145Z,17.37
2018-10-21T08:31:30.210Z,17.17
2018-10-21T08:33:59.178Z,17.90
2018-10-21T08:36:28.148Z,17.73
2018-10-21T08:38:57.102Z,16.93
2018-10-21T08:41:26.051Z,17.17
2018-10-21T08:43:54.982Z,17.07
2018-10-21T08:46:30.129Z,16.50
2018-10-21T08:48:58.965Z,17.60
2018-10-21T08:51:41.309Z,17.43
2018-10-21T08:54:19.945Z,17.63
2018-10-21T08:56:49.000Z,17.33
2018-10-21T08:59:17.938Z,17.30
2018-10-21T09:01:47.855Z,18.03
2018-10-21T09:04:18.877Z,17.83
2018-10-21T09:06:47.933Z,17.70
2018-10-21T09:09:31.271Z,17.30
2018-10-21T09:12:06.288Z,17.67
2018-10-21T09:14:49.149Z,16.60
2018-10-21T09:17:23.972Z,16.83
2018-10-21T09:20:05.541Z,15.93
2018-10-21T09:22:49.213Z,16.90
2018-10-21T09:25:18.123Z,15.97
2018-10-21T09:28:03.937Z,15.47
2018-10-21T09:30:39.290Z,16.40
2018-10-21T09:33:10.231Z,16.17
2018-10-21T09:35:45.229Z,16.20
2018-10-21T09:38:31.545Z,15.33
2018-10-21T09:41:14.531Z,14.63
2018-10-21T09:43:44.068Z,15.33
2018-10-21T09:46:13.313Z,16.17
2018-10-21T09:48:42.475Z,15.67
2018-10-21T09:51:15.121Z,15.47
2018-10-21T09:53:45.040Z,14.87
2018-10-21T09:56:13.933Z,14.03
2018-10-21T09:58:42.913Z,15.17
2018-10-21T10:01:19.221Z,13.90
2018-10-21T10:03:55.191Z,13.10
2018-10-21T10:06:24.167Z,12.13
2018-10-21T10:09:03.544Z,12.70
2018-10-21T10:11:36.708Z,12.63
2018-10-21T10:14:07.712Z,12.37
2018-10-21T10:16:47.472Z,12.97
2018-10-21T10:22:15.382Z,12.57
2018-10-21T10:25:06.920Z,12.20
2018-10-21T10:27:45.305Z,11.77
2018-10-21T10:30:14.304Z,11.43
2018-10-21T10:32:44.087Z,10.83
2018-10-21T10:35:14.057Z,10.47
2018-10-21T10:37:50.944Z,9.73
2018-10-21T10:40:29.612Z,9.13
2018-10-21T10:43:03.177Z,10.23
2018-10-21T10:45:32.000Z,9.00
2018-10-21T10:48:00.879Z,9.90
2018-10-21T10:50:29.880Z,8.97
2018-10-21T10:53:02.327Z,8.67
2018-10-21T10:55:36.358Z,8.27
2018-10-21T10:58:05.588Z,8.30
2018-10-21T11:00:36.442Z,8.37
2018-10-21T11:03:05.424Z,7.83
2018-10-21T11:05:34.306Z,7.27
2018-10-21T11:08:03.208Z,7.43
2018-10-21T11:10:32.218Z,8.03
2018-10-21T11:13:01.494Z,8.13
2018-10-21T11:15:32.418Z,7.53
2018-10-21T11:18:01.424Z,7.73
2018-10-21T11:20:34.603Z,7.23
2018-10-21T11:23:09.304Z,7.13
2018-10-21T11:25:38.212Z,7.03
2018-10-21T11:28:09.202Z,6.30
2018-10-21T11:30:38.075Z,6.90
2018-10-21T11:33:27.397Z,7.10
2018-10-21T11:35:56.738Z,6.87
2018-10-21T11:38:25.704Z,7.20
2018-10-21T11:40:54.590Z,6.87
2018-10-21T11:43:23.485Z,7.10
2018-10-21T11:45:52.384Z,6.70
2018-10-21T11:48:21.260Z,6.80
2018-10-21T11:50:50.145Z,6.63
2018-10-21T11:56:18.354Z,5.40
2018-10-21T11:58:47.266Z,5.20
2018-10-21T12:01:16.227Z,5.70
2018-10-21T12:03:45.021Z,5.10
2018-10-21T12:06:13.879Z,4.43
2018-10-21T12:08:42.747Z,5.17
2018-10-21T12:11:11.632Z,4.70
2018-10-21T12:13:40.536Z,4.50
2018-10-21T12:16:09.458Z,4.60
2018-10-21T12:18:38.329Z,4.43
2018-10-21T12:21:07.243Z,4.93
2018-10-21T12:23:36.188Z,3.87
2018-10-21T12:26:20.988Z,4.60
2018-10-21T12:28:49.927Z,5.90
2018-10-21T12:31:18.903Z,4.80
2018-10-21T12:34:10.175Z,3.60
2018-10-21T12:36:39.088Z,3.60
2018-10-21T12:39:09.434Z,3.30
2018-10-21T12:41:41.431Z,3.87
2018-10-21T12:44:10.296Z,4.10
2018-10-21T12:46:47.500Z,3.40
2018-10-21T12:49:16.473Z,3.30
2018-10-21T12:51:50.794Z,3.13
2018-10-21T12:54:19.724Z,3.73
2018-10-21T12:56:48.560Z,2.90
2018-10-21T12:59:17.454Z,3.00
2018-10-21T13:01:51.624Z,3.30
2018-10-21T13:04:20.531Z,3.10
2018-10-21T13:06:49.440Z,2.83
2018-10-21T13:09:18.332Z,2.67
2018-10-21T13:11:47.204Z,3.17
2018-10-21T13:14:16.098Z,3.70
2018-10-21T13:19:38.378Z,3.33
2018-10-21T13:22:07.237Z,3.17
2018-10-21T13:24:37.069Z,3.07
2018-10-21T13:27:06.006Z,2.70
2018-10-21T13:29:34.972Z,3.90
2018-10-21T13:32:05.119Z,4.10
2018-10-21T13:34:34.055Z,2.87
2018-10-21T13:37:03.077Z,3.30
2018-10-21T13:39:31.954Z,2.60
2018-10-21T13:42:00.854Z,2.43
2018-10-21T13:44:29.755Z,2.70
2018-10-21T13:46:58.630Z,2.97
2018-10-21T13:49:27.520Z,2.60
2018-10-21T13:51:56.535Z,3.10
2018-10-21T13:54:25.240Z,2.70
2018-10-21T13:56:57.380Z,2.90
2018-10-21T13:59:26.247Z,2.67
2018-10-21T14:01:55.241Z,2.10
2018-10-21T14:04:25.224Z,2.63
2018-10-21T14:06:54.199Z,2.47
2018-10-21T14:09:23.468Z,2.60
2018-10-21T14:11:52.816Z,2.70
2018-10-21T14:14:29.760Z,2.93
2018-10-21T14:16:59.170Z,2.53
2018-10-21T14:19:51.313Z,2.10
2018-10-21T14:22:20.681Z,2.10
2018-10-21T14:24:51.051Z,2.50
2018-10-21T14:27:19.927Z,2.50
2018-10-21T14:29:48.802Z,2.83
2018-10-21T14:32:17.773Z,2.57
2018-10-21T14:34:46.995Z,2.10
2018-10-21T14:37:16.163Z,2.27
2018-10-21T14:39:45.091Z,2.60
2018-10-21T14:42:15.133Z,2.47
2018-10-21T14:44:48.994Z,2.50
2018-10-21T14:47:17.964Z,2.50
2018-10-21T14:49:46.874Z,2.30
2018-10-21T14:52:33.734Z,2.60
2018-10-21T14:55:04.808Z,2.30
2018-10-21T14:57:58.629Z,2.57
2018-10-21T15:00:27.652Z,2.50
2018-10-21T15:03:02.115Z,2.23
2018-10-21T15:05:30.944Z,2.10
2018-10-21T15:11:10.024Z,2.33
2018-10-21T15:13:38.894Z,2.40
2018-10-21T15:16:07.865Z,3.00
2018-10-21T15:18:36.783Z,3.10
2018-10-21T15:21:05.711Z,2.83
2018-10-21T15:23:36.717Z,2.90
2018-10-21T15:26:24.718Z,2.67
2018-10-21T15:29:08.285Z,3.00
2018-10-21T15:31:55.373Z,2.83
2018-10-21T15:34:24.268Z,3.30
2018-10-21T15:36:53.269Z,2.67
2018-10-21T15:39:25.824Z,3.50
2018-10-21T15:41:54.709Z,2.70
2018-10-21T15:44:23.551Z,2.40
2018-10-21T15:46:52.421Z,2.60
2018-10-21T15:49:21.320Z,2.40
2018-10-21T15:51:50.271Z,2.40
2018-10-21T15:54:19.135Z,2.47
2018-10-21T15:56:48.084Z,2.40
2018-10-21T15:59:16.973Z,2.30
2018-10-21T16:01:58.466Z,2.43
2018-10-21T16:04:28.368Z,2.03
2018-10-21T16:06:57.241Z,2.60
2018-10-21T16:09:26.143Z,2.73
2018-10-21T16:12:00.796Z,3.47
2018-10-21T16:14:29.768Z,3.20
2018-10-21T16:16:58.560Z,2.57
2018-10-21T16:19:35.996Z,2.30
2018-10-21T16:22:04.966Z,2.40
2018-10-21T16:24:33.838Z,2.27
2018-10-21T16:27:14.665Z,2.23
2018-10-21T16:29:45.678Z,2.40
2018-10-21T16:35:21.783Z,2.77
2018-10-21T16:37:50.679Z,3.13
2018-10-21T16:40:19.608Z,2.37
2018-10-21T16:42:48.512Z,2.67
2018-10-21T16:45:17.473Z,2.37
2018-10-21T16:47:58.101Z,2.47
2018-10-21T16:50:26.962Z,2.13
2018-10-21T16:53:00.837Z,1.97
2018-10-21T16:55:37.047Z,2.10
2018-10-21T16:58:18.058Z,2.33
2018-10-21T17:00:48.109Z,2.20
2018-10-21T17:03:17.081Z,2.57
2018-10-21T17:05:45.883Z,2.73
2018-10-21T17:08:14.710Z,2.20
2018-10-21T17:10:43.936Z,2.47
2018-10-21T17:13:12.621Z,2.30
2018-10-21T17:15:47.540Z,2.23
2018-10-21T17:18:23.394Z,2.53
2018-10-21T17:20:53.364Z,2.70
2018-10-21T17:23:34.185Z,2.77
2018-10-21T17:26:07.377Z,2.50
2018-10-21T17:28:36.300Z,2.30
2018-10-21T17:31:05.396Z,2.23
2018-10-21T17:33:34.211Z,2.23
2018-10-21T17:36:03.131Z,2.60
2018-10-21T17:38:32.024Z,2.60
2018-10-21T17:41:09.349Z,2.53
2018-10-21T17:43:48.678Z,2.47
2018-10-21T17:46:20.901Z,2.50
2018-10-21T17:51:50.878Z,2.30
2018-10-21T17:54:30.845Z,2.50
2018-10-21T17:57:00.887Z,2.33
2018-10-21T17:59:29.972Z,2.60
2018-10-21T18:01:59.125Z,2.20
2018-10-21T18:04:28.491Z,2.43
2018-10-21T18:06:58.429Z,2.50
2018-10-21T18:09:37.317Z,2.57
2018-10-21T18:12:20.622Z,2.73
2018-10-21T18:14:51.703Z,2.67
2018-10-21T18:20:15.884Z,2.97
2018-10-21T18:22:44.737Z,2.67
2018-10-21T18:25:13.818Z,2.80
2018-10-21T18:27:42.789Z,2.80
2018-10-21T18:30:12.405Z,2.90
2018-10-21T18:32:42.597Z,2.73
2018-10-21T18:35:14.916Z,2.80
2018-10-21T18:37:53.895Z,3.07
2018-10-21T18:40:30.874Z,3.10
2018-10-21T18:43:02.991Z,2.70
2018-10-21T18:45:31.956Z,2.90
2018-10-21T18:48:06.394Z,8.80
2018-10-21T18:50:35.333Z,2.93
2018-10-21T18:53:05.657Z,3.10
2018-10-21T18:55:35.805Z,2.70
2018-10-21T18:58:10.867Z,2.73
2018-10-21T19:00:39.757Z,2.70
2018-10-21T19:03:08.807Z,3.07
2018-10-21T19:05:37.739Z,2.80
2018-10-21T19:08:10.205Z,3.00
2018-10-21T19:10:39.212Z,3.07
2018-10-21T19:13:10.351Z,3.10
2018-10-21T19:15:40.632Z,2.97
2018-10-21T19:18:09.580Z,3.40
2018-10-21T19:20:47.592Z,3.43
2018-10-21T19:23:18.626Z,4.07
2018-10-21T19:26:01.856Z,4.07
2018-10-21T19:28:30.787Z,3.53
2018-10-21T19:30:59.697Z,4.13
2018-10-21T19:33:28.720Z,3.60
2018-10-21T19:36:00.735Z,3.60
2018-10-21T19:38:29.951Z,3.37
2018-10-21T19:40:59.445Z,3.03
2018-10-21T19:43:29.099Z,3.47
2018-10-21T19:45:59.015Z,3.40
2018-10-21T19:48:32.763Z,3.30
2018-10-21T19:51:02.373Z,3.00
2018-10-21T19:53:31.936Z,2.67
2018-10-21T19:56:01.380Z,2.73
2018-10-21T19:58:30.759Z,3.07
2018-10-21T20:01:09.696Z,2.63
2018-10-21T20:03:38.922Z,2.90
2018-10-21T20:06:08.301Z,2.60
2018-10-21T20:08:38.705Z,2.80
2018-10-21T20:11:09.760Z,2.77
2018-10-21T20:16:57.333Z,2.90
2018-10-21T20:19:26.240Z,2.50
2018-10-21T20:21:58.499Z,2.83
2018-10-21T20:24:27.429Z,3.20
2018-10-21T20:26:56.334Z,2.80
2018-10-21T20:29:25.220Z,2.33
2018-10-21T20:31:54.207Z,2.80
2018-10-21T20:34:23.012Z,2.50
2018-10-21T20:36:51.942Z,2.80
2018-10-21T20:39:20.850Z,2.87
2018-10-21T20:41:50.799Z,2.73
2018-10-21T20:44:19.680Z,3.40
2018-10-21T20:46:51.953Z,2.90
2018-10-21T20:49:20.814Z,2.90
2018-10-21T20:51:50.714Z,3.07
2018-10-21T20:54:19.609Z,2.87
2018-10-21T20:56:48.496Z,2.73
2018-10-21T20:59:17.509Z,3.10
2018-10-21T21:01:46.372Z,3.27
2018-10-21T21:04:22.695Z,3.13
2018-10-21T21:07:04.346Z,3.23
2018-10-21T21:09:33.219Z,3.40
2018-10-21T21:12:02.205Z,4.30
2018-10-21T21:14:31.021Z,3.97
2018-10-21T21:17:18.425Z,3.63
2018-10-21T21:19:47.329Z,3.70
2018-10-21T21:22:16.288Z,3.37
2018-10-21T21:24:45.139Z,3.87
2018-10-21T21:27:15.018Z,3.40
2018-10-21T21:29:58.797Z,3.27
2018-10-21T21:32:34.073Z,3.20
2018-10-21T21:35:08.593Z,3.40
2018-10-21T21:37:50.328Z,3.13
2018-10-21T21:40:19.229Z,3.00
2018-10-21T21:42:49.128Z,2.90
2018-10-21T21:45:21.729Z,2.90
2018-10-21T21:47:50.692Z,3.10
2018-10-21T21:50:43.858Z,3.03
2018-10-21T21:53:16.612Z,3.17
2018-10-21T21:55:48.595Z,3.77
2018-10-21T21:58:18.054Z,3.03
2018-10-21T22:01:00.644Z,3.60
2018-10-21T22:03:48.546Z,3.33
2018-10-21T22:06:17.516Z,3.20
2018-10-21T22:08:46.329Z,3.50
2018-10-21T22:11:15.294Z,3.33
2018-10-21T22:13:44.196Z,3.10
2018-10-21T22:16:13.123Z,3.07
2018-10-21T22:18:41.991Z,3.10
2018-10-21T22:21:14.903Z,3.33
2018-10-21T22:23:43.783Z,3.30
2018-10-21T22:26:12.650Z,3.27
2018-10-21T22:28:41.528Z,3.30
2018-10-21T22:31:10.437Z,3.80
2018-10-21T22:33:39.323Z,3.67
2018-10-21T22:36:08.310Z,3.73
2018-10-21T22:41:32.227Z,3.80
2018-10-21T22:44:01.144Z,3.60
2018-10-21T22:46:30.253Z,3.67
2018-10-21T22:48:59.090Z,3.23
2018-10-21T22:51:27.989Z,3.60
2018-10-21T22:53:56.917Z,3.90
2018-10-21T22:56:25.760Z,3.43
2018-10-21T22:58:59.931Z,3.70
2018-10-21T23:01:28.832Z,3.53
2018-10-21T23:03:57.764Z,4.10
2018-10-21T23:06:26.640Z,4.00
2018-10-21T23:08:55.512Z,3.70
2018-10-21T23:11:24.452Z,3.60
2018-10-21T23:13:53.304Z,3.90
2018-10-21T23:16:22.215Z,3.80
2018-10-21T23:19:04.350Z,3.93
2018-10-21T23:21:33.202Z,3.97
2018-10-21T23:24:02.119Z,4.00
2018-10-21T23:26:30.984Z,4.00
2018-10-21T23:29:00.951Z,4.50
2018-10-21T23:31:29.823Z,4.00
2018-10-21T23:33:58.813Z,4.30
2018-10-21T23:36:27.747Z,4.00
2018-10-21T23:38:56.806Z,3.90
2018-10-21T23:41:25.669Z,4.10
2018-10-21T23:43:54.547Z,3.90
2018-10-21T23:46:23.434Z,4.10
2018-10-21T23:48:52.907Z,4.20
2018-10-21T23:51:22.884Z,3.80
2018-10-21T23:53:51.766Z,3.70
2018-10-21T23:56:20.650Z,3.67
2018-10-21T23:58:51.600Z,3.83
